vous aimez ? un don permettra le maintien du site
notre code QR

Notre ancien site Autre version du site

Autre présentation du siteun concentré d'infos sur une page

In Memoriam - 26/08/2020Pascale Declercq + 23/08/2020 Leuven



 

Valid CSS!


Rapports METAR à proximité

   
LFQQ - Lille/Lesquin, France
Distance: SE 22 km
Mise à jour: 18-08-2022 11:30
Brouillard, Nuageux  
Brouillard, Nuageux  
   Vent: Est 7 km/h
Vent: Est 7 km/h
Température: 22°C
Point de rosée: 17°C
Humidité: 73%
Baromètre: 1014 hPa
Nuages: Mostly Cloudy
visibilité: 4.4 km
Détails des nuages: Nuageux 426.7 m
LFQQ 180930Z AUTO 10004KT 010V150 4400 BR BKN014 22/17 Q1014 TEMPO 9999 NSW BKN040TCU
EBFN - Koksijde (bel-Af, Belgium
Distance: NNO 42 km
Mise à jour: 18-08-2022 11:34
Partiellement nuageux  
Partiellement nuageux  
   Vent: ONO 6 km/h
Vent: ONO 6 km/h
Température: 21°C
Point de rosée: 17°C
Humidité: 78%
Baromètre: 1014 hPa
Nuages: Partly Cloudy
visibilité: 8 km
Détails des nuages: Peu de nuages 457.2 m,
Partiellement nuageux 914.4 m
EBFN 180934Z 29003KT 8000 FEW015 SCT030 21/17 Q1014 BLU BLU TEMPO WHT
EBOS - Oostende Airport, Belgium
Distance: N 53 km
Mise à jour: 18-08-2022 11:50
Partiellement nuageux  
Partiellement nuageux  
   Vent: varie 6 km/h
Vent: varie 6 km/h
Température: 21°C
Point de rosée: 16°C
Humidité: 73%
Baromètre: 1015 hPa
Nuages: Partly Cloudy
visibilité: More than 10 km
Détails des nuages: Partiellement nuageux 548.6 m
EBOS 180950Z VRB03KT 9999 SCT018 21/16 Q1015 NOSIG

Script développé par  Saratoga-weather.org Adapté pour le modèle par  Weerstation Leuven

Vous trouverez notre info météo Également à:

UK Metoffice

European Weather Network

Weather Underground

AWEKAS

Citizen Weather Observer Program (CWOP)

HAMweather, WeatherForYou, PWS Weather

Équipement utilisé:

Station de Météo
Vantage Pro2

Programme Météo
cumulus

Ordinateur Météo
Zotac ID41

Fournisseur d'accès Internet
Hébergé par

Vantage Pro2

cumulus

Zotac ID41

Hébergé par